Time;durP1;ratioP1;P1;durP2;ratioP2;P2;SDS_P1;SDS_P2;PMS_P1;PMS_P2;Temp;Humidity;BMP_temperature;BMP_pressure;BME280_temperature;BME280_humidity;BME280_pressure;Samples;Min_cycle;Max_cycle;Signal;HPM_P1;HPM_P2
2023/03/22 00:00:05;;;;;;;86.10;40.20;;;;;;;8.92;77.45;100474.22;111039;1211;139030;-61
2023/03/22 00:02:32;;;;;;;81.00;38.80;;;;;;;8.93;77.42;100466.35;111223;1212;97685;-61
2023/03/22 00:04:57;;;;;;;75.70;37.00;;;;;;;8.92;77.47;100464.94;110991;1212;139086;-61
2023/03/22 00:07:22;;;;;;;76.80;37.50;;;;;;;8.92;77.47;100464.04;111042;1212;97666;-61
2023/03/22 00:09:47;;;;;;;82.80;38.50;;;;;;;8.92;77.50;100464.06;110978;1211;139219;-61
2023/03/22 00:12:13;;;;;;;80.00;38.80;;;;;;;8.91;77.53;100466.06;111175;1207;99037;-61
2023/03/22 00:14:38;;;;;;;82.50;39.70;;;;;;;8.91;77.59;100465.71;111128;1213;97722;-61
2023/03/22 00:17:03;;;;;;;84.30;38.40;;;;;;;8.91;77.62;100463.76;111032;1208;140798;-62
2023/03/22 00:19:32;;;;;;;77.30;37.30;;;;;;;8.89;77.76;100461.13;111053;1207;97778;-61
2023/03/22 00:22:00;;;;;;;83.70;38.10;;;;;;;8.90;77.73;100457.91;111103;1207;139331;-61
2023/03/22 00:24:25;;;;;;;84.90;38.80;;;;;;;8.89;77.73;100454.19;111115;1207;97700;-62
2023/03/22 00:26:50;;;;;;;83.40;37.60;;;;;;;8.89;77.68;100450.12;111179;1207;97649;-64
2023/03/22 00:29:16;;;;;;;85.60;37.20;;;;;;;8.87;77.75;100443.95;111034;1207;138618;-61
2023/03/22 00:31:41;;;;;;;85.30;40.00;;;;;;;8.88;77.91;100444.64;111176;1212;97668;-62
2023/03/22 00:34:07;;;;;;;84.30;38.80;;;;;;;8.90;77.91;100444.17;110941;1213;139856;-62
2023/03/22 00:36:32;;;;;;;79.90;38.30;;;;;;;8.92;77.89;100441.61;111054;1212;97677;-62
2023/03/22 00:38:57;;;;;;;80.40;38.40;;;;;;;8.92;77.96;100435.19;111177;1213;95037;-62
2023/03/22 00:41:23;;;;;;;81.00;37.20;;;;;;;8.93;77.94;100431.23;111078;1212;140557;-62
2023/03/22 00:43:49;;;;;;;76.30;36.90;;;;;;;8.93;77.96;100427.14;111057;1212;97625;-62
2023/03/22 00:46:18;;;;;;;77.90;37.80;;;;;;;8.93;78.02;100425.36;111050;1208;140489;-62
2023/03/22 00:48:43;;;;;;;75.80;37.00;;;;;;;8.94;78.04;100423.73;111093;1212;97570;-61
2023/03/22 00:51:09;;;;;;;88.00;36.40;;;;;;;8.95;78.09;100425.98;111207;1212;100671;-61
2023/03/22 00:53:35;;;;;;;74.70;36.30;;;;;;;8.96;78.08;100420.58;111076;1206;139393;-61
2023/03/22 00:56:02;;;;;;;71.50;34.00;;;;;;;8.96;78.12;100416.67;111182;1211;97734;-62
2023/03/22 00:58:27;;;;;;;75.80;35.80;;;;;;;8.96;78.18;100412.06;111062;1207;140350;-61
2023/03/22 01:00:52;;;;;;;76.80;37.70;;;;;;;8.97;78.23;100408.44;111220;1211;97689;-63
2023/03/22 01:03:18;;;;;;;79.20;37.80;;;;;;;8.99;78.16;100408.54;111071;1208;96216;-63
2023/03/22 01:05:44;;;;;;;70.10;35.20;;;;;;;8.99;78.13;100405.70;111061;1211;138594;-63
2023/03/22 01:08:11;;;;;;;76.80;37.50;;;;;;;8.99;78.13;100404.43;111203;1208;111152;-61
2023/03/22 01:10:38;;;;;;;76.20;35.20;;;;;;;8.99;78.22;100407.45;111151;1208;139250;-61
2023/03/22 01:13:04;;;;;;;74.90;35.10;;;;;;;9.00;78.21;100403.67;111245;1211;97642;-61
2023/03/22 01:15:30;;;;;;;75.30;34.70;;;;;;;8.99;78.25;100405.30;111119;1211;97593;-61
2023/03/22 01:17:55;;;;;;;70.20;36.10;;;;;;;8.99;78.21;100406.91;111139;1212;138837;-61
2023/03/22 01:20:21;;;;;;;69.60;35.60;;;;;;;8.99;78.21;100406.02;111163;1212;97559;-61
2023/03/22 01:22:46;;;;;;;69.90;33.60;;;;;;;9.00;78.35;100401.89;111025;1213;139702;-61
2023/03/22 01:25:12;;;;;;;73.20;35.60;;;;;;;9.01;78.34;100402.58;111110;1207;97578;-61
2023/03/22 01:27:37;;;;;;;75.60;35.80;;;;;;;9.01;78.39;100395.45;111202;1212;97691;-61
2023/03/22 01:30:05;;;;;;;70.60;34.60;;;;;;;8.99;78.40;100387.48;111066;1210;140113;-61
2023/03/22 01:32:30;;;;;;;77.90;36.40;;;;;;;8.99;78.33;100380.38;111179;1212;97609;-61
2023/03/22 01:34:56;;;;;;;71.00;34.50;;;;;;;8.98;78.45;100375.95;110965;1207;139979;-63
2023/03/22 01:37:24;;;;;;;69.00;35.80;;;;;;;8.98;78.50;100372.39;111108;1213;97663;-62
2023/03/22 01:39:49;;;;;;;75.30;36.20;;;;;;;8.98;78.42;100375.23;111081;1207;138702;-62
2023/03/22 01:42:17;;;;;;;75.80;37.60;;;;;;;8.98;78.54;100374.01;110998;1206;97565;-62
2023/03/22 01:44:44;;;;;;;72.10;36.40;;;;;;;8.99;78.61;100366.66;111109;1212;97635;-63
2023/03/22 01:47:10;;;;;;;78.20;37.30;;;;;;;8.99;78.68;100362.55;111084;1208;139790;-63
2023/03/22 01:49:37;;;;;;;79.10;36.90;;;;;;;8.99;78.73;100361.13;111185;1221;97573;-62
2023/03/22 01:52:11;;;;;;;72.80;33.90;;;;;;;9.00;78.74;100360.55;111014;1212;141305;-63
2023/03/22 01:54:42;;;;;;;73.30;34.50;;;;;;;8.99;78.71;100354.70;111219;1212;97681;-62
2023/03/22 01:57:08;;;;;;;;;;;;;;;8.99;78.71;100358.11;111286;1208;111002;-61
2023/03/22 01:59:35;;;;;;;68.70;34.10;;;;;;;8.97;78.80;100356.57;111062;1210;125995;-61
2023/03/22 02:02:01;;;;;;;67.80;32.90;;;;;;;8.97;78.81;100349.08;111071;1208;97700;-61
2023/03/22 02:04:33;;;;;;;73.20;34.00;;;;;;;8.98;78.93;100347.09;111149;1212;139493;-63
2023/03/22 02:07:08;;;;;;;72.30;34.40;;;;;;;8.97;78.81;100347.66;111153;1211;111516;-61
2023/03/22 02:09:38;;;;;;;63.90;34.00;;;;;;;8.96;78.94;100344.33;111103;1210;99860;-61
2023/03/22 02:12:06;;;;;;;74.00;33.90;;;;;;;8.93;78.93;100343.57;110971;1212;140042;-60
2023/03/22 02:14:52;;;;;;;75.80;35.80;;;;;;;8.91;79.10;100338.11;111116;1212;97583;-60
2023/03/22 02:17:27;;;;;;;74.30;37.00;;;;;;;8.88;79.07;100341.63;111061;1207;140696;-61
2023/03/22 02:20:45;;;;;;;69.90;33.50;;;;;;;8.84;79.21;100335.03;111170;1207;110792;-61
2023/03/22 02:23:36;;;;;;;70.90;34.60;;;;;;;8.81;79.43;100332.81;110827;1215;139666;-61
2023/03/22 02:26:10;;;;;;;74.80;35.50;;;;;;;8.79;79.36;100337.90;111070;1207;107141;-61
2023/03/22 02:29:00;;;;;;;72.30;34.30;;;;;;;8.77;79.55;100337.06;110963;1211;139518;-61
2023/03/22 02:31:42;;;;;;;68.30;33.60;;;;;;;8.76;79.54;100335.88;111133;1212;97575;-61
2023/03/22 02:34:52;;;;;;;66.10;34.60;;;;;;;8.72;79.81;100335.50;110981;1210;140994;-61
2023/03/22 02:37:36;;;;;;;69.80;32.80;;;;;;;8.68;79.67;100333.54;111161;1206;99929;-62
2023/03/22 02:40:16;;;;;;;68.00;32.70;;;;;;;8.65;79.84;100335.45;111047;1212;139369;-62
2023/03/22 02:43:15;;;;;;;66.10;31.40;;;;;;;8.61;79.96;100338.61;111161;1212;96537;-62
2023/03/22 02:45:49;;;;;;;75.00;36.10;;;;;;;8.58;80.04;100337.67;111122;1212;97686;-61
2023/03/22 02:48:30;;;;;;;71.40;33.70;;;;;;;8.56;80.23;100336.16;111010;1213;111387;-61
2023/03/22 02:51:01;;;;;;;84.50;34.60;;;;;;;8.55;80.18;100337.10;111048;1207;100488;-61
2023/03/22 02:53:40;;;;;;;66.40;33.20;;;;;;;8.52;80.31;100336.14;110963;1208;138707;-61
2023/03/22 02:56:15;;;;;;;68.30;35.50;;;;;;;8.48;80.65;100333.80;111083;1213;97595;-61
2023/03/22 02:58:47;;;;;;;71.00;34.80;;;;;;;8.45;80.76;100333.92;110897;1214;139141;-61
2023/03/22 03:01:22;;;;;;;71.70;35.00;;;;;;;8.43;80.86;100337.37;111220;1210;111351;-61
2023/03/22 03:03:49;;;;;;;77.80;35.90;;;;;;;8.41;80.91;100336.77;111081;1212;99585;-62
2023/03/22 03:06:21;;;;;;;75.60;35.50;;;;;;;8.40;80.87;100333.75;111116;1208;97564;-62
2023/03/22 03:08:52;;;;;;;72.80;35.10;;;;;;;8.38;81.06;100335.44;111114;1210;98072;-62
2023/03/22 03:11:18;;;;;;;78.00;35.80;;;;;;;8.35;81.28;100333.97;111018;1212;140169;-61
2023/03/22 03:13:48;;;;;;;77.90;34.80;;;;;;;8.33;81.30;100338.67;111144;1212;97783;-62
2023/03/22 03:16:19;;;;;;;70.80;33.70;;;;;;;8.30;81.33;100340.52;110935;1213;140465;-62
2023/03/22 03:19:08;;;;;;;81.20;37.30;;;;;;;8.28;81.27;100339.20;111196;1212;107460;-62
2023/03/22 03:22:26;;;;;;;78.90;36.20;;;;;;;8.25;81.49;100336.46;111192;1208;97565;-63
2023/03/22 03:25:20;;;;;;;71.50;34.00;;;;;;;8.22;81.88;100341.40;111137;1212;99935;-63
2023/03/22 03:27:56;;;;;;;73.50;35.40;;;;;;;8.17;82.07;100337.83;110936;1209;111676;-63
2023/03/22 03:30:32;;;;;;;72.00;34.30;;;;;;;8.11;82.19;100336.45;110929;1213;100349;-63
2023/03/22 03:33:11;;;;;;;79.50;37.80;;;;;;;8.05;82.52;100334.36;111031;1212;107641;-63
2023/03/22 03:36:08;;;;;;;82.80;35.60;;;;;;;8.00;82.27;100334.20;111054;1212;139443;-63
2023/03/22 03:38:38;;;;;;;77.70;37.50;;;;;;;7.99;83.14;100332.27;111139;1212;97950;-63
2023/03/22 03:41:07;;;;;;;77.30;37.60;;;;;;;7.96;83.11;100333.46;111051;1207;142063;-63
2023/03/22 03:43:33;;;;;;;84.80;37.10;;;;;;;7.96;83.25;100332.41;111248;1212;99951;-63
2023/03/22 03:45:59;;;;;;;78.00;37.00;;;;;;;7.97;83.42;100333.08;111080;1209;140358;-62
2023/03/22 03:48:31;;;;;;;76.70;36.80;;;;;;;7.96;84.38;100329.73;111258;1210;97784;-61
2023/03/22 03:50:58;;;;;;;75.20;37.00;;;;;;;7.96;83.87;100331.52;111166;1209;111412;-62
2023/03/22 03:53:23;;;;;;;80.70;36.20;;;;;;;7.96;83.71;100324.40;111003;1212;140090;-62
2023/03/22 03:55:49;;;;;;;81.30;38.30;;;;;;;7.97;83.96;100328.64;111123;1210;97605;-62
2023/03/22 03:58:17;;;;;;;81.20;40.00;;;;;;;7.97;84.16;100325.42;110996;1209;140988;-64
2023/03/22 04:00:45;;;;;;;81.40;36.90;;;;;;;7.98;84.26;100323.43;111111;1212;111214;-63
2023/03/22 04:03:11;;;;;;;77.00;35.50;;;;;;;7.98;84.18;100322.02;111040;1210;100137;-61
2023/03/22 04:05:37;;;;;;;81.90;40.20;;;;;;;7.97;84.36;100324.00;110939;1212;139696;-64
2023/03/22 04:08:02;;;;;;;80.10;39.10;;;;;;;7.96;84.62;100315.86;111170;1210;98000;-63
2023/03/22 04:10:28;;;;;;;73.50;35.30;;;;;;;7.95;85.03;100313.23;110940;1211;140331;-63
2023/03/22 04:12:53;;;;;;;81.70;39.10;;;;;;;7.94;84.91;100310.43;111095;1212;97672;-64
2023/03/22 04:15:18;;;;;;;90.70;40.30;;;;;;;7.94;85.07;100310.61;111168;1221;97697;-64
2023/03/22 04:17:45;;;;;;;83.90;38.60;;;;;;;7.93;85.12;100305.48;110996;1209;139083;-63
2023/03/22 04:20:12;;;;;;;84.60;40.40;;;;;;;7.93;85.24;100307.80;111111;1209;97722;-63
2023/03/22 04:22:38;;;;;;;76.90;37.00;;;;;;;7.95;85.33;100310.59;111077;1212;139271;-63
2023/03/22 04:25:10;;;;;;;79.90;38.90;;;;;;;7.93;85.59;100312.41;111189;1209;97004;-63
2023/03/22 04:27:37;;;;;;;69.80;34.00;;;;;;;7.92;85.66;100313.35;111118;1208;97678;-63
2023/03/22 04:30:03;;;;;;;78.20;35.80;;;;;;;7.92;85.85;100316.21;111163;1212;139202;-60
2023/03/22 04:32:29;;;;;;;77.80;35.00;;;;;;;7.92;85.92;100314.42;111086;1208;97624;-60
2023/03/22 04:34:54;;;;;;;77.30;35.40;;;;;;;7.92;86.07;100316.20;110998;1212;142345;-61
2023/03/22 04:37:23;;;;;;;75.70;36.70;;;;;;;7.92;86.34;100313.52;111103;1209;97637;-61
2023/03/22 04:39:48;;;;;;;75.50;35.80;;;;;;;7.92;86.34;100315.47;111128;1210;112110;-62
2023/03/22 04:42:14;;;;;;;77.10;35.10;;;;;;;7.93;86.44;100313.83;111012;1209;140621;-62
2023/03/22 04:44:40;;;;;;;75.60;36.00;;;;;;;7.95;86.64;100313.06;111265;1209;99048;-62
2023/03/22 04:47:05;;;;;;;77.80;35.80;;;;;;;7.96;87.48;100310.89;111002;1209;140226;-61
2023/03/22 04:49:30;;;;;;;81.40;37.70;;;;;;;7.96;87.53;100305.73;111215;1212;97664;-62
2023/03/22 04:51:56;;;;;;;80.90;36.40;;;;;;;7.97;87.22;100310.14;110924;1209;139003;-62
2023/03/22 04:54:23;;;;;;;86.80;40.40;;;;;;;7.98;87.12;100308.14;111091;1212;97653;-62
2023/03/22 04:56:49;;;;;;;89.60;38.80;;;;;;;7.98;87.26;100311.52;111134;1209;96059;-62
2023/03/22 04:59:18;;;;;;;74.40;36.20;;;;;;;7.98;87.43;100307.23;111005;1210;139238;-62
2023/03/22 05:01:48;;;;;;;78.20;37.00;;;;;;;7.99;87.36;100311.30;111084;1212;107973;-62
2023/03/22 05:04:15;;;;;;;76.40;36.60;;;;;;;7.99;87.50;100312.53;110947;1212;139759;-62
2023/03/22 05:06:41;;;;;;;75.30;36.70;;;;;;;8.00;87.54;100308.04;111161;1209;96179;-62
2023/03/22 05:09:06;;;;;;;77.80;36.10;;;;;;;8.01;87.80;100307.30;111025;1212;97739;-63
2023/03/22 05:11:32;;;;;;;79.00;35.90;;;;;;;8.02;88.09;100310.65;111046;1212;139799;-63
2023/03/22 05:13:57;;;;;;;78.80;36.40;;;;;;;8.03;88.01;100310.96;111070;1212;97698;-62
2023/03/22 05:16:24;;;;;;;76.30;37.00;;;;;;;8.05;88.22;100310.34;110913;1209;138977;-63
2023/03/22 05:18:53;;;;;;;73.90;35.80;;;;;;;8.06;88.25;100313.35;111106;1212;97683;-62
2023/03/22 05:21:21;;;;;;;78.10;37.60;;;;;;;8.07;88.47;100315.62;111030;1210;107981;-63
2023/03/22 05:23:48;;;;;;;74.30;33.90;;;;;;;8.09;88.61;100315.52;110962;1209;139901;-63
2023/03/22 05:26:14;;;;;;;70.40;35.20;;;;;;;8.10;88.63;100311.60;111127;1210;97621;-62
2023/03/22 05:28:41;;;;;;;86.50;36.90;;;;;;;8.11;88.68;100315.61;111022;1210;138864;-63
2023/03/22 05:31:07;;;;;;;82.20;36.80;;;;;;;8.13;88.78;100312.01;111055;1212;97635;-63
2023/03/22 05:33:33;;;;;;;78.00;36.20;;;;;;;8.14;88.90;100309.48;111150;1209;97594;-63
2023/03/22 05:35:59;;;;;;;69.50;32.70;;;;;;;8.13;88.88;100313.23;110976;1209;139454;-63
2023/03/22 05:38:25;;;;;;;82.80;37.70;;;;;;;8.13;88.96;100314.48;110961;1209;97632;-63
2023/03/22 05:40:50;;;;;;;76.00;37.10;;;;;;;8.14;89.20;100319.60;111033;1210;139014;-63
2023/03/22 05:43:16;;;;;;;75.90;36.30;;;;;;;8.16;89.22;100325.96;111049;1210;97588;-62
2023/03/22 05:45:41;;;;;;;78.10;35.70;;;;;;;8.18;89.42;100328.73;110996;1212;97741;-63
2023/03/22 05:48:07;;;;;;;78.70;36.20;;;;;;;8.22;89.37;100327.86;111023;1209;138666;-62
2023/03/22 05:50:33;;;;;;;76.00;35.90;;;;;;;8.26;89.53;100325.02;111088;1212;97680;-62
2023/03/22 05:52:59;;;;;;;69.20;34.00;;;;;;;8.28;89.75;100320.48;110996;1212;139626;-63
2023/03/22 05:55:25;;;;;;;73.70;33.30;;;;;;;8.30;89.80;100323.09;111022;1209;97686;-62
2023/03/22 05:57:52;;;;;;;67.20;33.40;;;;;;;8.33;89.99;100326.55;111268;1212;99825;-62
2023/03/22 06:00:19;;;;;;;71.70;32.50;;;;;;;8.35;89.94;100321.30;110943;1209;138873;-62
2023/03/22 06:02:47;;;;;;;72.00;33.40;;;;;;;8.38;89.99;100325.66;111222;1212;97680;-62
2023/03/22 06:05:14;;;;;;;65.10;31.70;;;;;;;8.40;90.13;100326.29;110959;1209;140179;-62
2023/03/22 06:07:40;;;;;;;65.30;31.50;;;;;;;8.43;90.62;100335.79;110998;1212;97777;-62
2023/03/22 06:10:08;;;;;;;63.10;29.90;;;;;;;8.42;90.50;100329.94;110987;1210;140722;-62
2023/03/22 06:12:34;;;;;;;55.30;28.60;;;;;;;8.44;90.64;100328.79;111071;1209;97686;-63
2023/03/22 06:15:00;;;;;;;55.50;24.30;;;;;;;8.45;90.74;100329.28;111137;1212;97637;-63
2023/03/22 06:17:26;;;;;;;66.70;28.70;;;;;;;8.49;90.98;100332.52;110891;1212;139164;-61
2023/03/22 06:19:53;;;;;;;59.50;29.50;;;;;;;8.54;91.08;100330.73;111007;1210;98109;-63
2023/03/22 06:22:19;;;;;;;57.90;28.90;;;;;;;8.60;91.32;100334.03;110853;1210;139202;-63
2023/03/22 06:24:44;;;;;;;64.90;29.40;;;;;;;8.67;91.33;100331.10;111059;1210;97620;-63
2023/03/22 06:27:10;;;;;;;61.10;30.30;;;;;;;8.67;91.42;100328.41;111151;1212;97660;-61
2023/03/22 06:29:35;;;;;;;57.90;29.40;;;;;;;8.69;91.60;100325.13;110857;1212;140608;-62
2023/03/22 06:32:01;;;;;;;54.70;27.90;;;;;;;8.73;91.67;100331.89;111062;1209;97546;-61
2023/03/22 06:34:27;;;;;;;60.00;28.90;;;;;;;8.79;91.76;100326.47;110721;1212;138664;-63
2023/03/22 06:36:53;;;;;;;61.80;29.60;;;;;;;8.85;91.78;100325.55;111073;1212;97657;-63
2023/03/22 06:39:22;;;;;;;57.10;30.30;;;;;;;8.89;91.98;100328.22;110991;1209;97581;-63
2023/03/22 06:41:47;;;;;;;57.30;29.80;;;;;;;8.95;91.95;100330.84;110975;1212;138610;-63
2023/03/22 06:44:14;;;;;;;62.60;30.90;;;;;;;9.00;92.04;100332.93;111040;1209;97686;-63
2023/03/22 06:46:40;;;;;;;62.00;29.30;;;;;;;9.04;91.99;100333.84;111034;1208;141123;-62
2023/03/22 06:49:05;;;;;;;53.00;28.30;;;;;;;9.05;92.13;100326.48;111019;1209;97709;-63
2023/03/22 06:51:30;;;;;;;55.30;27.90;;;;;;;9.06;92.20;100326.96;111055;1209;97619;-63
2023/03/22 06:53:57;;;;;;;54.80;28.10;;;;;;;9.09;92.32;100325.07;110987;1212;139696;-63
2023/03/22 06:56:22;;;;;;;59.80;27.40;;;;;;;9.09;92.33;100324.88;111028;1212;99128;-63
2023/03/22 06:58:50;;;;;;;52.90;25.90;;;;;;;9.09;92.30;100328.78;110960;1208;141036;-63
2023/03/22 07:01:17;;;;;;;46.10;24.80;;;;;;;9.10;92.53;100325.89;110964;1212;97633;-63
2023/03/22 07:03:42;;;;;;;55.20;25.50;;;;;;;9.13;92.96;100327.55;111095;1212;97742;-60
2023/03/22 07:06:09;;;;;;;52.50;24.30;;;;;;;9.18;92.85;100328.94;110982;1210;138879;-61
2023/03/22 07:08:35;;;;;;;50.10;24.60;;;;;;;9.22;92.85;100331.98;111030;1206;108971;-61
2023/03/22 07:11:02;;;;;;;45.90;24.10;;;;;;;9.23;92.81;100330.52;110928;1209;138875;-61
2023/03/22 07:13:27;;;;;;;42.00;23.50;;;;;;;9.24;92.78;100326.90;111036;1211;97578;-61
2023/03/22 07:15:58;;;;;;;42.00;23.30;;;;;;;9.29;92.89;100330.44;111128;1209;97661;-61
2023/03/22 07:18:24;;;;;;;48.50;23.70;;;;;;;9.33;93.06;100328.28;110977;1209;108145;-61
2023/03/22 07:20:49;;;;;;;43.60;23.90;;;;;;;9.37;92.96;100332.95;111045;1209;97683;-62
2023/03/22 07:23:15;;;;;;;36.90;21.20;;;;;;;9.41;93.13;100334.00;111049;1209;139184;-63
2023/03/22 07:25:41;;;;;;;41.60;23.40;;;;;;;9.47;93.59;100332.89;111052;1212;99088;-64
2023/03/22 07:28:09;;;;;;;40.80;22.60;;;;;;;9.50;93.37;100325.96;110876;1209;140386;-63
2023/03/22 07:30:36;;;;;;;45.90;24.80;;;;;;;9.54;93.34;100319.19;111013;1208;97832;-63
2023/03/22 07:33:02;;;;;;;38.90;22.10;;;;;;;9.62;93.41;100314.01;111091;1210;98091;-64
2023/03/22 07:35:28;;;;;;;41.20;21.20;;;;;;;9.68;93.41;100309.09;110920;1209;138796;-63
2023/03/22 07:37:53;;;;;;;37.00;20.80;;;;;;;9.70;93.44;100311.48;111117;1212;97670;-62
2023/03/22 07:40:19;;;;;;;40.70;22.30;;;;;;;9.73;93.53;100307.96;110828;1212;139362;-62
2023/03/22 07:42:47;;;;;;;40.40;20.80;;;;;;;9.76;93.51;100311.05;111141;1212;97662;-62
2023/03/22 07:45:12;;;;;;;38.70;21.30;;;;;;;9.79;93.64;100310.74;111145;1210;100018;-62
2023/03/22 07:47:38;;;;;;;41.30;22.50;;;;;;;9.79;93.57;100312.68;110810;1209;139380;-62
2023/03/22 07:50:04;;;;;;;36.00;20.10;;;;;;;9.84;93.95;100311.58;111148;1209;97645;-62
2023/03/22 07:52:29;;;;;;;38.30;22.50;;;;;;;9.88;93.82;100308.70;111021;1212;141013;-62
2023/03/22 07:54:54;;;;;;;39.90;23.20;;;;;;;9.95;93.78;100305.20;111108;1212;97664;-62
2023/03/22 07:57:20;;;;;;;39.60;23.30;;;;;;;10.03;93.67;100308.36;111102;1209;98968;-62
2023/03/22 07:59:45;;;;;;;48.90;24.40;;;;;;;10.13;93.77;100308.63;111018;1212;139929;-62
2023/03/22 08:02:10;;;;;;;34.40;20.90;;;;;;;10.24;93.89;100305.29;111224;1208;97654;-62
2023/03/22 08:04:36;;;;;;;37.80;21.70;;;;;;;10.37;93.96;100308.77;110922;1206;140206;-61
2023/03/22 08:07:01;;;;;;;37.40;21.80;;;;;;;10.47;93.88;100308.08;111100;1209;99141;-62
2023/03/22 08:09:27;;;;;;;38.10;22.10;;;;;;;10.56;93.84;100304.80;111207;1209;97658;-62
2023/03/22 08:11:53;;;;;;;38.50;20.70;;;;;;;10.65;93.86;100308.06;111012;1209;140929;-62
2023/03/22 08:14:19;;;;;;;36.70;21.60;;;;;;;10.71;93.84;100310.27;111155;1209;98494;-62
2023/03/22 08:16:45;;;;;;;34.50;20.20;;;;;;;10.67;93.59;100308.69;110975;1211;140169;-62
2023/03/22 08:19:10;;;;;;;31.20;18.90;;;;;;;10.62;93.46;100307.66;111028;1212;97857;-62
2023/03/22 08:21:35;;;;;;;31.60;18.60;;;;;;;10.60;93.50;100306.73;111095;1209;97619;-62
2023/03/22 08:24:01;;;;;;;35.60;20.40;;;;;;;10.56;93.51;100306.54;110925;1212;139065;-63
2023/03/22 08:26:27;;;;;;;34.00;20.40;;;;;;;10.51;93.30;100307.51;110901;1209;98264;-63
2023/03/22 08:28:52;;;;;;;30.20;17.50;;;;;;;10.52;93.43;100310.50;110485;1212;139825;-62
2023/03/22 08:31:18;;;;;;;31.60;18.70;;;;;;;10.50;93.27;100310.23;110971;1210;97657;-63
2023/03/22 08:33:45;;;;;;;32.20;18.50;;;;;;;10.56;93.37;100306.57;110915;1209;97712;-62
2023/03/22 08:36:16;;;;;;;34.40;18.70;;;;;;;10.60;93.23;100308.70;110816;1209;139838;-63
2023/03/22 08:38:43;;;;;;;31.10;18.50;;;;;;;10.59;93.25;100303.75;111056;1209;100260;-62
2023/03/22 08:41:10;;;;;;;27.00;17.20;;;;;;;10.64;93.30;100296.34;110785;1211;139632;-62
2023/03/22 08:43:35;;;;;;;32.90;18.80;;;;;;;10.72;93.30;100298.60;110816;1211;97755;-62
2023/03/22 08:46:02;;;;;;;29.60;17.50;;;;;;;10.78;93.18;100293.14;110889;1209;139836;-61
2023/03/22 08:48:29;;;;;;;32.70;19.40;;;;;;;10.80;93.05;100294.67;111056;1212;100458;-63
2023/03/22 08:50:55;;;;;;;31.50;18.30;;;;;;;10.81;92.93;100293.20;110988;1209;97731;-64
2023/03/22 08:53:21;;;;;;;27.00;16.70;;;;;;;10.93;93.19;100286.84;110880;1210;139421;-63
2023/03/22 08:55:46;;;;;;;25.90;16.50;;;;;;;11.05;93.09;100290.70;111065;1208;97673;-61
2023/03/22 08:58:12;;;;;;;33.90;16.10;;;;;;;11.14;93.02;100293.11;110799;1209;140372;-61
2023/03/22 09:00:38;;;;;;;27.60;15.10;;;;;;;11.22;92.79;100291.99;111082;1209;97697;-61
2023/03/22 09:03:04;;;;;;;28.90;16.60;;;;;;;11.24;92.44;100286.50;111093;1207;96302;-62
2023/03/22 09:05:29;;;;;;;28.60;15.30;;;;;;;11.31;92.52;100290.08;110955;1212;139504;-62
2023/03/22 09:07:55;;;;;;;25.10;16.20;;;;;;;11.37;92.23;100288.48;111050;1212;97679;-61
2023/03/22 09:10:21;;;;;;;32.00;17.60;;;;;;;11.40;91.36;100287.25;110956;1210;139083;-61
2023/03/22 09:12:47;;;;;;;32.50;17.20;;;;;;;11.46;91.70;100291.10;111280;1208;97664;-61
2023/03/22 09:15:12;;;;;;;35.00;17.50;;;;;;;11.47;91.55;100294.06;110989;1209;97591;-62
2023/03/22 09:17:38;;;;;;;28.90;17.10;;;;;;;11.47;91.20;100290.84;110950;1208;140423;-61
2023/03/22 09:20:04;;;;;;;34.20;16.70;;;;;;;11.47;90.89;100295.86;111056;1209;97647;-61
2023/03/22 09:22:30;;;;;;;27.60;16.80;;;;;;;11.42;90.82;100290.73;110885;1209;140019;-61
2023/03/22 09:24:56;;;;;;;25.00;16.10;;;;;;;11.45;91.00;100291.48;111048;1209;97677;-62
2023/03/22 09:27:21;;;;;;;27.10;17.20;;;;;;;11.50;90.76;100291.20;111061;1212;97677;-61
2023/03/22 09:29:48;;;;;;;32.50;15.80;;;;;;;11.54;90.62;100301.00;110893;1212;140034;-61
2023/03/22 09:32:14;;;;;;;26.40;15.90;;;;;;;11.53;90.10;100293.91;110973;1209;97776;-61
2023/03/22 09:34:40;;;;;;;26.10;17.50;;;;;;;11.56;90.13;100293.07;111002;1207;139186;-62
2023/03/22 09:37:05;;;;;;;23.50;14.60;;;;;;;11.60;89.76;100292.83;110921;1209;97670;-62
2023/03/22 09:39:30;;;;;;;27.00;14.90;;;;;;;11.63;89.59;100290.13;111045;1207;97586;-61
2023/03/22 09:42:01;;;;;;;25.90;14.70;;;;;;;11.65;89.29;100286.85;110943;1212;141172;-60
2023/03/22 09:44:31;;;;;;;23.10;15.40;;;;;;;11.73;89.51;100284.42;111100;1207;99095;-61
2023/03/22 09:46:58;;;;;;;24.90;15.70;;;;;;;11.84;89.24;100282.84;110931;1208;140516;-60
2023/03/22 09:49:29;;;;;;;22.50;14.10;;;;;;;11.92;88.96;100284.14;111101;1209;97670;-61
2023/03/22 09:51:55;;;;;;;29.20;16.30;;;;;;;11.95;88.55;100279.15;111141;1210;97607;-60
2023/03/22 09:54:34;;;;;;;22.60;14.60;;;;;;;12.04;88.80;100273.66;110821;1207;138761;-61
2023/03/22 09:57:14;;;;;;;20.80;14.80;;;;;;;12.13;88.37;100267.59;111018;1207;100072;-63
2023/03/22 09:59:51;;;;;;;25.60;14.80;;;;;;;12.20;88.34;100267.75;110897;1211;139211;-61
2023/03/22 10:02:38;;;;;;;28.40;15.20;;;;;;;12.32;88.53;100259.89;110922;1212;97752;-64
2023/03/22 10:05:29;;;;;;;19.10;13.50;;;;;;;12.48;88.29;100257.71;110852;1210;140545;-63
2023/03/22 10:08:19;;;;;;;20.80;12.80;;;;;;;12.60;87.97;100253.43;111353;1209;111814;-62
2023/03/22 10:10:45;;;;;;;21.00;13.30;;;;;;;12.68;87.77;100256.20;110939;1209;139295;-62
2023/03/22 10:13:26;;;;;;;20.60;11.90;;;;;;;12.74;87.04;100260.85;110998;1207;96889;-62
2023/03/22 10:15:58;;;;;;;21.10;13.00;;;;;;;12.74;86.95;100256.39;111064;1207;97581;-62
2023/03/22 10:18:28;;;;;;;18.50;11.50;;;;;;;12.77;86.80;100257.13;111010;1208;97555;-61
2023/03/22 10:21:00;;;;;;;21.40;12.00;;;;;;;12.84;86.65;100254.90;111129;1209;111729;-61
2023/03/22 10:23:48;;;;;;;21.20;12.10;;;;;;;12.91;86.30;100258.96;110887;1207;140333;-61
2023/03/22 10:26:43;;;;;;;15.00;10.10;;;;;;;12.94;85.99;100250.39;111023;1212;107890;-62
2023/03/22 10:29:37;;;;;;;22.70;11.50;;;;;;;12.97;85.38;100249.99;110912;1209;139362;-62
2023/03/22 10:32:15;;;;;;;17.40;10.70;;;;;;;13.04;85.47;100246.50;111067;1207;97928;-61
2023/03/22 10:34:42;;;;;;;16.10;10.90;;;;;;;13.08;85.16;100245.34;110951;1208;139554;-61
2023/03/22 10:37:15;;;;;;;16.40;11.00;;;;;;;13.11;84.80;100245.73;111041;1211;97689;-61
2023/03/22 10:39:45;;;;;;;23.80;10.40;;;;;;;13.07;84.29;100244.73;111028;1212;108141;-61
2023/03/22 10:42:14;;;;;;;17.30;10.20;;;;;;;13.05;84.06;100239.98;110868;1209;139102;-61
2023/03/22 10:44:47;;;;;;;17.40;10.80;;;;;;;13.09;83.84;100239.00;111180;1207;96130;-61
2023/03/22 10:47:17;;;;;;;14.50;10.00;;;;;;;13.12;83.45;100240.98;110818;1207;139183;-61
2023/03/22 10:49:47;;;;;;;17.80;11.30;;;;;;;13.14;83.44;100236.05;111058;1212;100054;-62
2023/03/22 10:52:45;;;;;;;19.90;11.10;;;;;;;13.17;82.95;100235.30;110992;1208;140533;-63
2023/03/22 10:55:12;;;;;;;26.80;10.90;;;;;;;13.13;82.52;100233.59;110964;1208;97607;-64
2023/03/22 10:57:39;;;;;;;19.40;10.80;;;;;;;13.09;82.24;100236.87;110994;1208;97764;-63
2023/03/22 11:00:12;;;;;;;19.70;11.40;;;;;;;13.06;81.50;100238.16;110850;1209;139214;-61
2023/03/22 11:02:52;;;;;;;20.40;12.50;;;;;;;13.03;81.53;100232.95;110998;1210;99187;-62
2023/03/22 11:05:25;;;;;;;14.80;9.90;;;;;;;13.11;81.59;100234.24;110946;1208;139930;-61
2023/03/22 11:07:51;;;;;;;18.60;10.90;;;;;;;13.20;81.70;100229.06;110873;1212;97618;-64
2023/03/22 11:10:26;;;;;;;15.60;10.00;;;;;;;13.30;81.62;100230.96;110849;1208;139353;-62
2023/03/22 11:13:10;;;;;;;21.50;9.90;;;;;;;13.40;81.64;100230.50;111037;1208;110619;-62